createdAt,value
2023-04-13T00:00:49.876Z,988.68
2023-04-13T00:01:50.030Z,988.66
2023-04-13T00:02:49.957Z,988.69
2023-04-13T00:03:49.926Z,988.70
2023-04-13T00:04:50.851Z,988.74
2023-04-13T00:05:49.870Z,988.67
2023-04-13T00:06:49.821Z,988.71
2023-04-13T00:07:49.782Z,988.72
2023-04-13T00:08:49.818Z,988.69
2023-04-13T00:09:49.770Z,988.72
2023-04-13T00:10:50.804Z,988.73
2023-04-13T00:11:49.785Z,988.71
2023-04-13T00:12:50.735Z,988.80
2023-04-13T00:13:49.752Z,988.78
2023-04-13T00:14:49.724Z,988.78
2023-04-13T00:15:49.759Z,988.79
2023-04-13T00:16:49.766Z,988.75
2023-04-13T00:17:49.730Z,988.81
2023-04-13T00:18:49.726Z,988.81
2023-04-13T00:19:49.680Z,988.82
2023-04-13T00:20:49.701Z,988.82
2023-04-13T00:21:49.799Z,988.81
2023-04-13T00:22:49.668Z,988.72
2023-04-13T00:23:50.639Z,988.68
2023-04-13T00:24:49.617Z,988.69
2023-04-13T00:25:49.592Z,988.73
2023-04-13T00:26:49.613Z,988.71
2023-04-13T00:27:49.588Z,988.76
2023-04-13T00:28:49.794Z,988.78
2023-04-13T00:29:49.679Z,988.85
2023-04-13T00:30:50.594Z,988.87
2023-04-13T00:31:49.527Z,988.91
2023-04-13T00:32:49.568Z,988.88
2023-04-13T00:33:49.513Z,988.82
2023-04-13T00:34:49.487Z,988.83
2023-04-13T00:35:49.526Z,988.89
2023-04-13T00:36:50.465Z,988.94
2023-04-13T00:37:49.454Z,988.89
2023-04-13T00:38:50.457Z,988.98
2023-04-13T00:39:49.461Z,989.09
2023-04-13T00:40:49.471Z,989.24
2023-04-13T00:41:50.422Z,989.28
2023-04-13T00:42:49.560Z,989.31
2023-04-13T00:43:49.389Z,989.29
2023-04-13T00:44:49.410Z,989.23
2023-04-13T00:45:49.438Z,989.19
2023-04-13T00:46:50.387Z,989.00
2023-04-13T00:47:49.430Z,989.03
2023-04-13T00:48:50.370Z,989.10
2023-04-13T00:49:49.369Z,989.22
2023-04-13T00:50:50.326Z,989.22
2023-04-13T00:51:49.340Z,989.16
2023-04-13T00:52:49.346Z,989.18
2023-04-13T00:53:49.306Z,989.11
2023-04-13T00:54:49.285Z,989.12
2023-04-13T00:55:49.315Z,989.18
2023-04-13T00:56:49.248Z,989.12
2023-04-13T00:57:49.290Z,989.11
2023-04-13T00:58:49.266Z,989.18
2023-04-13T00:59:49.246Z,989.17
2023-04-13T01:00:49.253Z,989.22
2023-04-13T01:01:49.301Z,989.17
2023-04-13T01:02:50.337Z,989.22
2023-04-13T01:03:50.237Z,989.24
2023-04-13T01:04:49.268Z,989.25
2023-04-13T01:05:49.210Z,989.29
2023-04-13T01:06:50.159Z,989.32
2023-04-13T01:07:50.141Z,989.31
2023-04-13T01:08:50.176Z,989.30
2023-04-13T01:09:49.109Z,989.35
2023-04-13T01:10:50.148Z,989.28
2023-04-13T01:11:49.085Z,989.33
2023-04-13T01:12:49.106Z,989.39
2023-04-13T01:13:50.054Z,989.34
2023-04-13T01:14:50.083Z,989.40
2023-04-13T01:15:49.141Z,989.35
2023-04-13T01:16:49.058Z,989.42
2023-04-13T01:17:51.123Z,989.39
2023-04-13T01:18:49.052Z,989.45
2023-04-13T01:19:50.000Z,989.44
2023-04-13T01:20:49.005Z,989.36
2023-04-13T01:21:48.974Z,989.36
2023-04-13T01:22:50.008Z,989.34
2023-04-13T01:23:49.950Z,989.31
2023-04-13T01:24:48.945Z,989.33
2023-04-13T01:25:48.934Z,989.36
2023-04-13T01:26:49.933Z,989.40
2023-04-13T01:27:49.937Z,989.40
2023-04-13T01:28:48.915Z,989.42
2023-04-13T01:29:48.885Z,989.40
2023-04-13T01:30:48.905Z,989.42
2023-04-13T01:31:49.015Z,989.44
2023-04-13T01:32:48.930Z,989.38
2023-04-13T01:33:48.870Z,989.40
2023-04-13T01:34:48.853Z,989.36
2023-04-13T01:35:48.833Z,989.39
2023-04-13T01:36:49.807Z,989.46
2023-04-13T01:37:48.835Z,989.47
2023-04-13T01:38:49.810Z,989.44
2023-04-13T01:39:49.472Z,989.39
2023-04-13T01:40:48.815Z,989.36
2023-04-13T01:41:48.763Z,989.43
2023-04-13T01:42:48.741Z,989.38
2023-04-13T01:43:49.738Z,989.41
2023-04-13T01:44:48.754Z,989.48
2023-04-13T01:45:48.738Z,989.45
2023-04-13T01:46:48.771Z,989.47
2023-04-13T01:47:48.745Z,989.46
2023-04-13T01:48:49.731Z,989.48
2023-04-13T01:49:48.666Z,989.45
2023-04-13T01:50:48.696Z,989.45
2023-04-13T01:51:48.664Z,989.41
2023-04-13T01:52:48.675Z,989.45
2023-04-13T01:53:48.629Z,989.56
2023-04-13T01:54:48.627Z,989.59
2023-04-13T01:55:48.649Z,989.61
2023-04-13T01:56:48.605Z,989.64
2023-04-13T01:57:48.607Z,989.57
2023-04-13T01:58:48.567Z,989.58
2023-04-13T01:59:49.555Z,989.58
2023-04-13T02:00:48.632Z,989.55
2023-04-13T02:01:48.558Z,989.55
2023-04-13T02:02:48.782Z,989.51
2023-04-13T02:03:48.586Z,989.48
2023-04-13T02:04:49.520Z,989.48
2023-04-13T02:05:48.496Z,989.46
2023-04-13T02:06:48.528Z,989.47
2023-04-13T02:07:48.481Z,989.41
2023-04-13T02:08:50.045Z,989.38
2023-04-13T02:09:48.465Z,989.37
2023-04-13T02:10:49.433Z,989.47
2023-04-13T02:11:49.454Z,989.47
2023-04-13T02:12:49.422Z,989.43
2023-04-13T02:13:48.400Z,989.49
2023-04-13T02:14:48.415Z,989.49
2023-04-13T02:15:49.401Z,989.47
2023-04-13T02:16:49.429Z,989.48
2023-04-13T02:17:49.419Z,989.45
2023-04-13T02:18:48.367Z,989.45
2023-04-13T02:19:48.355Z,989.50
2023-04-13T02:20:49.338Z,989.42
2023-04-13T02:21:49.349Z,989.46
2023-04-13T02:22:48.354Z,989.49
2023-04-13T02:23:48.289Z,989.51
2023-04-13T02:24:48.293Z,989.51
2023-04-13T02:25:49.278Z,989.55
2023-04-13T02:26:48.284Z,989.60
2023-04-13T02:27:48.282Z,989.55
2023-04-13T02:28:48.264Z,989.57
2023-04-13T02:29:48.237Z,989.61
2023-04-13T02:30:49.241Z,989.57
2023-04-13T02:31:48.283Z,989.53
2023-04-13T02:32:48.245Z,989.54
2023-04-13T02:33:49.262Z,989.61
2023-04-13T02:34:48.247Z,989.49
2023-04-13T02:35:48.177Z,989.49
2023-04-13T02:36:49.168Z,989.57
2023-04-13T02:37:48.155Z,989.54
2023-04-13T02:38:48.150Z,989.63
2023-04-13T02:39:48.125Z,989.56
2023-04-13T02:40:48.167Z,989.66
2023-04-13T02:41:48.103Z,989.60
2023-04-13T02:42:48.107Z,989.62
2023-04-13T02:43:48.095Z,989.63
2023-04-13T02:44:49.063Z,989.62
2023-04-13T02:45:48.139Z,989.61
2023-04-13T02:46:48.107Z,989.61
2023-04-13T02:47:48.070Z,989.60
2023-04-13T02:48:48.024Z,989.59
2023-04-13T02:49:48.025Z,989.63
2023-04-13T02:50:48.061Z,989.59
2023-04-13T02:51:48.047Z,989.63
2023-04-13T02:52:47.981Z,989.59
2023-04-13T02:53:47.971Z,989.60
2023-04-13T02:54:47.972Z,989.54
2023-04-13T02:55:47.987Z,989.49
2023-04-13T02:56:47.932Z,989.51
2023-04-13T02:57:47.932Z,989.49
2023-04-13T02:58:47.929Z,989.52
2023-04-13T02:59:47.929Z,989.47
2023-04-13T03:00:47.915Z,989.47
2023-04-13T03:01:48.980Z,989.47
2023-04-13T03:02:48.097Z,989.48
2023-04-13T03:03:48.871Z,989.49
2023-04-13T03:04:48.896Z,989.52
2023-04-13T03:05:47.844Z,989.48
2023-04-13T03:06:47.883Z,989.49
2023-04-13T03:07:47.839Z,989.51
2023-04-13T03:08:47.802Z,989.46
2023-04-13T03:09:47.825Z,989.54
2023-04-13T03:10:47.813Z,989.49
2023-04-13T03:11:47.770Z,989.48
2023-04-13T03:12:47.777Z,989.46
2023-04-13T03:13:47.771Z,989.43
2023-04-13T03:14:47.747Z,989.41
2023-04-13T03:15:48.759Z,989.40
2023-04-13T03:16:47.784Z,989.38
2023-04-13T03:17:54.901Z,989.42
2023-04-13T03:18:47.718Z,989.44
2023-04-13T03:19:48.685Z,989.47
2023-04-13T03:20:47.721Z,989.45
2023-04-13T03:21:48.660Z,989.53
2023-04-13T03:22:47.699Z,989.53
2023-04-13T03:23:47.638Z,989.50
2023-04-13T03:24:48.638Z,989.53
2023-04-13T03:25:47.610Z,989.51
2023-04-13T03:26:47.613Z,989.48
2023-04-13T03:27:47.656Z,989.55
2023-04-13T03:28:47.619Z,989.56
2023-04-13T03:29:47.589Z,989.58
2023-04-13T03:30:48.585Z,989.59
2023-04-13T03:31:47.649Z,989.60
2023-04-13T03:32:47.618Z,989.49
2023-04-13T03:33:47.569Z,989.51
2023-04-13T03:34:47.547Z,989.56
2023-04-13T03:35:48.531Z,989.49
2023-04-13T03:36:47.540Z,989.61
2023-04-13T03:37:48.573Z,989.57
2023-04-13T03:38:47.491Z,989.66
2023-04-13T03:39:47.483Z,989.65
2023-04-13T03:40:47.500Z,989.64
2023-04-13T03:41:47.460Z,989.58
2023-04-13T03:42:47.483Z,989.65
2023-04-13T03:43:47.420Z,989.63
2023-04-13T03:44:47.419Z,989.64
2023-04-13T03:45:47.439Z,989.68
2023-04-13T03:46:47.450Z,989.64
2023-04-13T03:47:47.441Z,989.60
2023-04-13T03:48:47.395Z,989.70
2023-04-13T03:49:47.357Z,989.73
2023-04-13T03:50:47.345Z,989.64
2023-04-13T03:51:47.366Z,989.60
2023-04-13T03:52:48.346Z,989.56
2023-04-13T03:53:47.318Z,989.53
2023-04-13T03:54:48.334Z,989.54
2023-04-13T03:55:47.339Z,989.53
2023-04-13T03:56:47.297Z,989.56
2023-04-13T03:57:47.278Z,989.53
2023-04-13T03:58:47.286Z,989.56
2023-04-13T03:59:47.257Z,989.53
2023-04-13T04:00:47.260Z,989.51
2023-04-13T04:01:47.277Z,989.50
2023-04-13T04:02:47.404Z,989.49
2023-04-13T04:03:47.405Z,989.51
2023-04-13T04:04:47.213Z,989.42
2023-04-13T04:05:47.204Z,989.44
2023-04-13T04:06:48.163Z,989.42
2023-04-13T04:07:47.157Z,989.42
2023-04-13T04:08:47.159Z,989.44
2023-04-13T04:09:47.136Z,989.38
2023-04-13T04:10:48.206Z,989.45
2023-04-13T04:11:47.142Z,989.38
2023-04-13T04:12:47.159Z,989.40
2023-04-13T04:13:47.091Z,989.43
2023-04-13T04:14:47.106Z,989.43
2023-04-13T04:15:48.095Z,989.47
2023-04-13T04:16:47.155Z,989.48
2023-04-13T04:17:47.096Z,989.52
2023-04-13T04:18:47.040Z,989.50
2023-04-13T04:19:47.025Z,989.52
2023-04-13T04:20:47.040Z,989.56
2023-04-13T04:21:47.282Z,989.56
2023-04-13T04:22:47.014Z,989.65
2023-04-13T04:23:47.009Z,989.69
2023-04-13T04:24:47.977Z,989.65
2023-04-13T04:25:47.951Z,989.65
2023-04-13T04:26:46.977Z,989.64
2023-04-13T04:27:46.983Z,989.63
2023-04-13T04:28:46.941Z,989.69
2023-04-13T04:29:46.923Z,989.72
2023-04-13T04:30:46.906Z,989.73
2023-04-13T04:31:46.956Z,989.73
2023-04-13T04:32:46.944Z,989.71
2023-04-13T04:33:46.899Z,989.69
2023-04-13T04:34:46.881Z,989.70
2023-04-13T04:35:47.855Z,989.70
2023-04-13T04:36:47.850Z,989.68
2023-04-13T04:37:46.868Z,989.72
2023-04-13T04:38:46.886Z,989.75
2023-04-13T04:39:46.837Z,989.73
2023-04-13T04:40:46.841Z,989.79
2023-04-13T04:41:46.796Z,989.80
2023-04-13T04:42:47.783Z,989.76
2023-04-13T04:43:46.783Z,989.79
2023-04-13T04:44:46.781Z,989.79
2023-04-13T04:45:46.821Z,989.86
2023-04-13T04:46:46.760Z,989.86
2023-04-13T04:47:46.809Z,989.94
2023-04-13T04:48:46.721Z,989.93
2023-04-13T04:49:46.712Z,989.93
2023-04-13T04:50:46.725Z,989.93
2023-04-13T04:51:46.700Z,989.96
2023-04-13T04:52:46.713Z,989.93
2023-04-13T04:53:46.656Z,989.97
2023-04-13T04:54:46.641Z,989.93
2023-04-13T04:55:46.654Z,990.01
2023-04-13T04:56:46.658Z,990.03
2023-04-13T04:57:46.633Z,990.02
2023-04-13T04:58:46.631Z,990.02
2023-04-13T04:59:46.634Z,990.05
2023-04-13T05:00:46.635Z,990.08
2023-04-13T05:01:46.961Z,990.08
2023-04-13T05:02:47.681Z,990.11
2023-04-13T05:03:47.538Z,990.11
2023-04-13T05:04:46.573Z,990.13
2023-04-13T05:05:46.648Z,990.11
2023-04-13T05:06:46.529Z,990.17
2023-04-13T05:07:47.525Z,990.16
2023-04-13T05:08:46.501Z,990.23
2023-04-13T05:09:47.471Z,990.28
2023-04-13T05:10:46.505Z,990.19
2023-04-13T05:11:46.532Z,990.26
2023-04-13T05:12:46.469Z,990.34
2023-04-13T05:13:46.434Z,990.30
2023-04-13T05:14:46.466Z,990.30
2023-04-13T05:15:46.476Z,990.26
2023-04-13T05:16:46.458Z,990.25
2023-04-13T05:17:46.467Z,990.31
2023-04-13T05:18:46.397Z,990.36
2023-04-13T05:19:46.430Z,990.30
2023-04-13T05:20:47.374Z,990.35
2023-04-13T05:21:47.367Z,990.34
2023-04-13T05:22:47.421Z,990.35
2023-04-13T05:23:46.330Z,990.36
2023-04-13T05:24:46.333Z,990.33
2023-04-13T05:25:46.326Z,990.29
2023-04-13T05:26:46.329Z,990.33
2023-04-13T05:27:47.304Z,990.35
2023-04-13T05:28:46.325Z,990.37
2023-04-13T05:29:47.572Z,990.39
2023-04-13T05:30:46.296Z,990.50
2023-04-13T05:31:46.320Z,990.50
2023-04-13T05:32:46.319Z,990.55
2023-04-13T05:33:46.217Z,990.55
2023-04-13T05:34:47.238Z,990.60
2023-04-13T05:35:46.229Z,990.58
2023-04-13T05:36:46.241Z,990.60
2023-04-13T05:37:46.233Z,990.60
2023-04-13T05:38:46.192Z,990.53
2023-04-13T05:39:46.156Z,990.55
2023-04-13T05:40:46.147Z,990.61
2023-04-13T05:41:46.160Z,990.64
2023-04-13T05:42:46.148Z,990.62
2023-04-13T05:43:46.157Z,990.60
2023-04-13T05:44:46.158Z,990.61
2023-04-13T05:45:46.117Z,990.66
2023-04-13T05:46:46.132Z,990.63
2023-04-13T05:47:46.128Z,990.65
2023-04-13T05:48:46.110Z,990.62
2023-04-13T05:49:46.122Z,990.63
2023-04-13T05:50:47.055Z,990.61
2023-04-13T05:51:46.023Z,990.54
2023-04-13T05:52:47.025Z,990.55
2023-04-13T05:53:46.034Z,990.56
2023-04-13T05:54:46.011Z,990.61
2023-04-13T05:55:48.189Z,990.56
2023-04-13T05:56:46.979Z,990.53
2023-04-13T05:57:46.026Z,990.49
2023-04-13T05:58:45.957Z,990.56
2023-04-13T05:59:45.961Z,990.64
2023-04-13T06:00:45.944Z,990.61
2023-04-13T06:01:45.994Z,990.70
2023-04-13T06:02:46.033Z,990.68
2023-04-13T06:03:46.011Z,990.62
2023-04-13T06:04:47.060Z,990.61
2023-04-13T06:05:45.917Z,990.73
2023-04-13T06:06:45.863Z,990.68
2023-04-13T06:07:45.893Z,990.67
2023-04-13T06:08:45.835Z,990.73
2023-04-13T06:09:45.849Z,990.77
2023-04-13T06:10:45.833Z,990.81
2023-04-13T06:11:46.830Z,990.79
2023-04-13T06:12:45.800Z,990.83
2023-04-13T06:13:46.840Z,990.83
2023-04-13T06:14:45.810Z,990.73
2023-04-13T06:15:46.776Z,990.76
2023-04-13T06:16:45.835Z,990.83
2023-04-13T06:17:45.810Z,990.73
2023-04-13T06:18:45.765Z,990.77
2023-04-13T06:19:45.756Z,990.79
2023-04-13T06:20:45.710Z,990.73
2023-04-13T06:21:45.689Z,990.74
2023-04-13T06:22:45.726Z,990.73
2023-04-13T06:23:45.676Z,990.75
2023-04-13T06:24:45.698Z,990.80
2023-04-13T06:25:45.703Z,990.72
2023-04-13T06:26:45.639Z,990.79
2023-04-13T06:27:46.642Z,990.76
2023-04-13T06:28:46.618Z,990.72
2023-04-13T06:29:45.609Z,990.74
2023-04-13T06:30:45.653Z,990.71
2023-04-13T06:31:45.614Z,990.80
2023-04-13T06:32:45.678Z,990.78
2023-04-13T06:33:45.585Z,990.74
2023-04-13T06:34:45.559Z,990.71
2023-04-13T06:35:45.542Z,990.69
2023-04-13T06:36:45.542Z,990.73
2023-04-13T06:37:46.593Z,990.71
2023-04-13T06:38:45.518Z,990.72
2023-04-13T06:39:45.499Z,990.73
2023-04-13T06:40:45.520Z,990.67
2023-04-13T06:41:45.485Z,990.67
2023-04-13T06:42:45.516Z,990.71
2023-04-13T06:43:45.468Z,990.70
2023-04-13T06:44:45.436Z,990.69
2023-04-13T06:45:45.446Z,990.68
2023-04-13T06:46:46.459Z,990.64
2023-04-13T06:47:46.482Z,990.75
2023-04-13T06:48:45.435Z,990.74
2023-04-13T06:49:45.376Z,990.79
2023-04-13T06:50:45.390Z,990.71
2023-04-13T06:51:45.360Z,990.72
2023-04-13T06:52:45.361Z,990.71
2023-04-13T06:53:45.372Z,990.74
2023-04-13T06:54:46.498Z,990.77
2023-04-13T06:55:45.346Z,990.73
2023-04-13T06:56:45.320Z,990.71
2023-04-13T06:57:45.302Z,990.78
2023-04-13T06:58:45.312Z,990.70
2023-04-13T06:59:46.289Z,990.74
2023-04-13T07:00:45.400Z,990.73
2023-04-13T07:01:45.331Z,990.76
2023-04-13T07:02:45.540Z,990.71
2023-04-13T07:03:45.375Z,990.67
2023-04-13T07:04:45.288Z,990.72
2023-04-13T07:05:46.204Z,990.71
2023-04-13T07:06:45.213Z,990.75
2023-04-13T07:07:45.205Z,990.76
2023-04-13T07:08:46.196Z,990.71
2023-04-13T07:09:45.203Z,990.77
2023-04-13T07:10:45.192Z,990.74
2023-04-13T07:11:46.131Z,990.75
2023-04-13T07:12:45.179Z,990.75
2023-04-13T07:13:45.131Z,990.75
2023-04-13T07:14:45.130Z,990.73
2023-04-13T07:15:45.133Z,990.73
2023-04-13T07:16:45.111Z,990.76
2023-04-13T07:17:45.148Z,990.80
2023-04-13T07:18:45.079Z,990.76
2023-04-13T07:19:45.121Z,990.79
2023-04-13T07:20:45.055Z,990.78
2023-04-13T07:21:45.045Z,990.75
2023-04-13T07:22:45.077Z,990.76
2023-04-13T07:23:45.029Z,990.81
2023-04-13T07:24:44.991Z,990.84
2023-04-13T07:25:45.062Z,990.85
2023-04-13T07:26:44.974Z,990.80
2023-04-13T07:27:44.987Z,990.79
2023-04-13T07:28:44.961Z,990.86
2023-04-13T07:29:44.992Z,990.76
2023-04-13T07:30:44.995Z,990.77
2023-04-13T07:31:45.010Z,990.78
2023-04-13T07:32:44.944Z,990.81
2023-04-13T07:33:44.920Z,990.82
2023-04-13T07:34:44.922Z,990.95
2023-04-13T07:35:44.892Z,990.87
2023-04-13T07:36:44.897Z,990.91
2023-04-13T07:37:44.884Z,990.93
2023-04-13T07:38:45.855Z,991.00
2023-04-13T07:39:44.885Z,990.87
2023-04-13T07:40:44.848Z,990.90
2023-04-13T07:41:44.817Z,990.93
2023-04-13T07:42:44.861Z,990.88
2023-04-13T07:43:44.827Z,990.95
2023-04-13T07:44:44.780Z,990.88
2023-04-13T07:45:44.771Z,990.94
2023-04-13T07:46:44.857Z,990.94
2023-04-13T07:47:44.765Z,990.92
2023-04-13T07:48:45.027Z,991.00
2023-04-13T07:49:45.739Z,990.95
2023-04-13T07:50:44.778Z,990.98
2023-04-13T07:51:45.698Z,991.03
2023-04-13T07:52:44.693Z,991.07
2023-04-13T07:53:44.682Z,991.06
2023-04-13T07:54:45.769Z,991.12
2023-04-13T07:55:44.660Z,991.10
2023-04-13T07:56:44.710Z,991.20
2023-04-13T07:57:44.654Z,991.23
2023-04-13T07:58:45.646Z,991.20
2023-04-13T07:59:45.598Z,991.15
2023-04-13T08:00:44.620Z,991.25
2023-04-13T08:01:44.615Z,991.25
2023-04-13T08:02:44.824Z,991.21
2023-04-13T08:03:44.846Z,991.22
2023-04-13T08:04:44.641Z,991.24
2023-04-13T08:05:46.913Z,991.26
2023-04-13T08:06:44.550Z,991.29
2023-04-13T08:07:44.535Z,991.33
2023-04-13T08:08:44.527Z,991.37
2023-04-13T08:09:44.525Z,991.37
2023-04-13T08:10:44.559Z,991.38
2023-04-13T08:11:44.490Z,991.36
2023-04-13T08:12:44.501Z,991.26
2023-04-13T08:13:44.473Z,991.39
2023-04-13T08:14:44.495Z,991.34
2023-04-13T08:15:44.470Z,991.41
2023-04-13T08:16:45.521Z,991.36
2023-04-13T08:17:44.496Z,991.33
2023-04-13T08:18:44.435Z,991.35
2023-04-13T08:19:44.446Z,991.43
2023-04-13T08:20:44.411Z,991.34
2023-04-13T08:21:44.415Z,991.40
2023-04-13T08:22:44.389Z,991.39
2023-04-13T08:23:45.385Z,991.38
2023-04-13T08:24:44.363Z,991.42
2023-04-13T08:25:44.423Z,991.40
2023-04-13T08:26:44.395Z,991.48
2023-04-13T08:27:44.313Z,991.46
2023-04-13T08:28:44.308Z,991.37
2023-04-13T08:29:44.300Z,991.45
2023-04-13T08:30:44.281Z,991.42
2023-04-13T08:31:44.346Z,991.45
2023-04-13T08:32:44.300Z,991.42
2023-04-13T08:33:44.260Z,991.44
2023-04-13T08:34:44.291Z,991.40
2023-04-13T08:35:45.214Z,991.46
2023-04-13T08:36:44.209Z,991.44
2023-04-13T08:37:45.506Z,991.40
2023-04-13T08:38:44.230Z,991.37
2023-04-13T08:39:44.184Z,991.51
2023-04-13T08:40:44.173Z,991.43
2023-04-13T08:41:44.173Z,991.41
2023-04-13T08:42:44.189Z,991.36
2023-04-13T08:43:44.143Z,991.39
2023-04-13T08:44:45.183Z,991.46
2023-04-13T08:45:44.207Z,991.39
2023-04-13T08:46:44.128Z,991.47
2023-04-13T08:47:45.156Z,991.49
2023-04-13T08:48:53.513Z,991.50
2023-04-13T08:49:45.065Z,991.54
2023-04-13T08:50:44.080Z,991.53
2023-04-13T08:51:44.080Z,991.53
2023-04-13T08:52:44.046Z,991.65
2023-04-13T08:53:44.042Z,991.66
2023-04-13T08:54:44.034Z,991.58
2023-04-13T08:55:44.005Z,991.64
2023-04-13T08:56:46.722Z,991.70
2023-04-13T08:57:44.017Z,991.79
2023-04-13T08:58:44.001Z,991.74
2023-04-13T08:59:43.956Z,991.75
2023-04-13T09:00:44.938Z,991.84
2023-04-13T09:01:44.062Z,991.80
2023-04-13T09:03:44.150Z,991.77
2023-04-13T09:04:44.056Z,991.76
2023-04-13T09:05:43.892Z,991.73
2023-04-13T09:06:43.894Z,991.76
2023-04-13T09:07:43.899Z,991.79
2023-04-13T09:08:43.845Z,991.81
2023-04-13T09:09:43.856Z,991.77
2023-04-13T09:10:43.855Z,991.72
2023-04-13T09:11:43.834Z,991.77
2023-04-13T09:12:43.815Z,991.73
2023-04-13T09:13:43.845Z,991.72
2023-04-13T09:14:43.853Z,991.73
2023-04-13T09:15:43.790Z,991.67
2023-04-13T09:16:44.849Z,991.71
2023-04-13T09:17:43.825Z,991.81
2023-04-13T09:18:43.812Z,991.71
2023-04-13T09:19:43.773Z,991.69
2023-04-13T09:20:43.730Z,991.75
2023-04-13T09:21:44.796Z,991.80
2023-04-13T09:22:43.729Z,991.76
2023-04-13T09:23:43.699Z,991.81
2023-04-13T09:24:44.748Z,991.84
2023-04-13T09:25:44.670Z,991.77
2023-04-13T09:26:43.663Z,991.78
2023-04-13T09:27:44.640Z,991.74
2023-04-13T09:28:43.629Z,991.79
2023-04-13T09:29:44.683Z,991.89
2023-04-13T09:30:43.704Z,991.79
2023-04-13T09:31:45.525Z,991.81
2023-04-13T09:32:43.608Z,991.84
2023-04-13T09:33:43.593Z,991.77
2023-04-13T09:34:43.590Z,991.85
2023-04-13T09:35:43.633Z,991.81
2023-04-13T09:36:52.858Z,991.75
2023-04-13T09:37:44.633Z,991.75
2023-04-13T09:38:43.601Z,991.75
2023-04-13T09:39:43.533Z,991.76
2023-04-13T09:40:43.506Z,991.78
2023-04-13T09:41:43.514Z,991.79
2023-04-13T09:42:44.488Z,991.71
2023-04-13T09:43:43.599Z,991.69
2023-04-13T09:44:43.463Z,991.72
2023-04-13T09:45:43.478Z,991.72
2023-04-13T09:46:43.540Z,991.61
2023-04-13T09:47:43.488Z,991.70
2023-04-13T09:48:44.428Z,991.69
2023-04-13T09:49:43.459Z,991.71
2023-04-13T09:50:43.458Z,991.73
2023-04-13T09:51:43.422Z,991.60
2023-04-13T09:52:43.392Z,991.68
2023-04-13T09:53:43.405Z,991.67
2023-04-13T09:54:43.354Z,991.64
2023-04-13T09:55:44.005Z,991.70
2023-04-13T09:56:43.364Z,991.68
2023-04-13T09:57:43.321Z,991.71
2023-04-13T09:58:43.323Z,991.65
2023-04-13T09:59:43.340Z,991.76
2023-04-13T10:00:43.290Z,991.69
2023-04-13T10:01:43.472Z,991.66
2023-04-13T10:02:44.574Z,991.71
2023-04-13T10:03:43.296Z,991.73
2023-04-13T10:04:43.264Z,991.73
2023-04-13T10:05:57.838Z,991.74
2023-04-13T10:06:44.245Z,991.76
2023-04-13T10:07:43.200Z,991.75
2023-04-13T10:08:44.305Z,991.81
2023-04-13T10:09:43.199Z,991.80
2023-04-13T10:10:43.194Z,991.80
2023-04-13T10:11:44.196Z,991.83
2023-04-13T10:12:44.155Z,991.85
2023-04-13T10:13:43.212Z,991.84
2023-04-13T10:14:43.150Z,991.88
2023-04-13T10:15:43.191Z,991.97
2023-04-13T10:16:43.416Z,991.96
2023-04-13T10:17:43.223Z,992.03
2023-04-13T10:18:43.132Z,991.97
2023-04-13T10:19:43.117Z,992.16
2023-04-13T10:20:43.098Z,992.07
2023-04-13T10:21:45.198Z,991.99
2023-04-13T10:22:43.083Z,992.02
2023-04-13T10:23:43.028Z,991.93
2023-04-13T10:24:43.029Z,992.00
2023-04-13T10:25:43.104Z,992.05
2023-04-13T10:26:42.995Z,992.12
2023-04-13T10:27:42.999Z,992.13
2023-04-13T10:28:43.031Z,992.00
2023-04-13T10:29:42.959Z,992.01
2023-04-13T10:30:43.030Z,992.01
2023-04-13T10:31:43.047Z,991.98
2023-04-13T10:32:42.990Z,992.08
2023-04-13T10:33:43.941Z,992.04
2023-04-13T10:34:42.982Z,992.09
2023-04-13T10:35:43.634Z,992.15
2023-04-13T10:36:42.924Z,992.21
2023-04-13T10:37:42.922Z,992.18
2023-04-13T10:38:43.879Z,992.19
2023-04-13T10:39:42.869Z,992.13
2023-04-13T10:40:42.869Z,992.13
2023-04-13T10:41:42.828Z,992.15
2023-04-13T10:43:42.839Z,992.26
2023-04-13T10:44:42.883Z,992.19
2023-04-13T10:45:42.803Z,992.22
2023-04-13T10:46:42.916Z,992.33
2023-04-13T10:47:43.821Z,992.27
2023-04-13T10:48:42.754Z,992.28
2023-04-13T10:49:42.767Z,992.31
2023-04-13T10:50:43.786Z,992.34
2023-04-13T10:51:42.758Z,992.33
2023-04-13T10:52:42.734Z,992.34
2023-04-13T10:53:42.700Z,992.28
2023-04-13T10:54:42.714Z,992.28
2023-04-13T10:55:42.699Z,992.32
2023-04-13T10:56:42.734Z,992.37
2023-04-13T10:57:43.643Z,992.30
2023-04-13T10:58:42.636Z,992.33
2023-04-13T10:59:56.327Z,992.43
2023-04-13T11:00:46.100Z,992.34
2023-04-13T11:01:43.654Z,992.34
2023-04-13T11:02:42.695Z,992.37
2023-04-13T11:03:53.150Z,992.32
2023-04-13T11:04:43.708Z,992.37
2023-04-13T11:05:42.683Z,992.34
2023-04-13T11:06:42.607Z,992.36
2023-04-13T11:07:42.553Z,992.36
2023-04-13T11:08:48.238Z,992.46
2023-04-13T11:09:43.525Z,992.39
2023-04-13T11:10:43.545Z,992.38
2023-04-13T11:11:43.495Z,992.43
2023-04-13T11:12:42.518Z,992.43
2023-04-13T11:13:42.502Z,992.50
2023-04-13T11:14:42.498Z,992.44
2023-04-13T11:15:42.506Z,992.35
2023-04-13T11:16:43.538Z,992.39
2023-04-13T11:17:42.566Z,992.32
2023-04-13T11:18:42.446Z,992.31
2023-04-13T11:19:42.417Z,992.35
2023-04-13T11:20:42.424Z,992.32
2023-04-13T11:21:43.402Z,992.34
2023-04-13T11:22:47.420Z,992.36
2023-04-13T11:23:42.396Z,992.40
2023-04-13T11:24:42.363Z,992.43
2023-04-13T11:25:42.354Z,992.46
2023-04-13T11:26:43.393Z,992.46
2023-04-13T11:27:42.324Z,992.38
2023-04-13T11:28:42.387Z,992.36
2023-04-13T11:29:42.306Z,992.32
2023-04-13T11:30:42.328Z,992.36
2023-04-13T11:31:42.529Z,992.28
2023-04-13T11:32:42.357Z,992.34
2023-04-13T11:33:42.255Z,992.35
2023-04-13T11:34:42.248Z,992.40
2023-04-13T11:35:42.259Z,992.39
2023-04-13T11:36:42.276Z,992.43
2023-04-13T11:37:43.214Z,992.42
2023-04-13T11:38:42.398Z,992.49
2023-04-13T11:39:42.218Z,992.39
2023-04-13T11:40:42.178Z,992.38
2023-04-13T11:41:42.203Z,992.48
2023-04-13T11:42:42.175Z,992.42
2023-04-13T11:43:42.171Z,992.43
2023-04-13T11:44:42.176Z,992.40
2023-04-13T11:45:42.166Z,992.46
2023-04-13T11:46:42.165Z,992.50
2023-04-13T11:47:42.147Z,992.47
2023-04-13T11:48:42.094Z,992.39
2023-04-13T11:49:43.071Z,992.50
2023-04-13T11:50:43.081Z,992.37
2023-04-13T11:51:42.054Z,992.47
2023-04-13T11:52:42.065Z,992.46
2023-04-13T11:53:42.059Z,992.45
2023-04-13T11:54:42.083Z,992.54
2023-04-13T11:55:52.917Z,992.44
2023-04-13T11:56:43.006Z,992.47
2023-04-13T11:57:42.001Z,992.44
2023-04-13T11:58:42.024Z,992.47
2023-04-13T11:59:42.027Z,992.38
2023-04-13T12:00:41.963Z,992.42
2023-04-13T12:01:49.567Z,992.35
2023-04-13T12:03:00.477Z,992.36
2023-04-13T12:03:59.040Z,992.29
2023-04-13T12:04:43.101Z,992.39
2023-04-13T12:05:42.026Z,992.42
2023-04-13T12:06:42.217Z,992.47
2023-04-13T12:07:43.143Z,992.45
2023-04-13T12:08:42.675Z,992.39
2023-04-13T12:09:55.266Z,992.43
2023-04-13T12:10:51.959Z,992.35
2023-04-13T12:11:48.473Z,992.42
2023-04-13T12:13:47.296Z,992.39
2023-04-13T12:15:49.032Z,992.37
2023-04-13T12:17:49.583Z,992.36
2023-04-13T12:18:43.509Z,992.36
2023-04-13T12:19:43.667Z,992.42
2023-04-13T12:20:41.870Z,992.40
2023-04-13T12:21:42.568Z,992.43
2023-04-13T12:22:51.030Z,992.34
2023-04-13T12:23:42.759Z,992.32
2023-04-13T12:24:42.803Z,992.39
2023-04-13T12:25:42.142Z,992.30
2023-04-13T12:27:17.246Z,992.30
2023-04-13T12:27:42.667Z,992.29
2023-04-13T12:28:42.653Z,992.34
2023-04-13T12:29:41.681Z,992.37
2023-04-13T12:30:41.689Z,992.33
2023-04-13T12:31:41.661Z,992.34
2023-04-13T12:32:41.678Z,992.35
2023-04-13T12:33:41.619Z,992.43